Time;durP1;ratioP1;P1;durP2;ratioP2;P2;SDS_P1;SDS_P2;PMS_P1;PMS_P2;Temp;Humidity;BMP_temperature;BMP_pressure;BME280_temperature;BME280_humidity;BME280_pressure;Samples;Min_cycle;Max_cycle;Signal;HPM_P1;HPM_P2
2021/05/29 00:01:37;;;;;;;4.20;2.60;;;14.20;99.90;;;;;;4155409;28;20128;-68
2021/05/29 00:03:38;;;;;;;4.20;2.97;;;14.20;99.90;;;;;;4158580;28;20057;-69
2021/05/29 00:05:39;;;;;;;5.28;2.67;;;14.20;99.90;;;;;;4157106;28;20567;-69
2021/05/29 00:07:39;;;;;;;4.38;2.60;;;14.20;99.90;;;;;;4158626;28;20641;-68
2021/05/29 00:09:41;;;;;;;6.20;2.55;;;14.20;99.90;;;;;;4158016;28;20434;-68
2021/05/29 00:11:41;;;;;;;3.75;2.25;;;14.10;99.90;;;;;;4156956;28;20095;-68
2021/05/29 00:13:42;;;;;;;3.88;2.47;;;14.20;99.90;;;;;;4158429;28;20385;-68
2021/05/29 00:15:43;;;;;;;3.90;2.60;;;14.10;99.90;;;;;;4153625;28;20040;-68
2021/05/29 00:17:43;;;;;;;3.22;2.30;;;14.10;99.90;;;;;;4155843;28;20042;-68
2021/05/29 00:19:45;;;;;;;3.22;2.20;;;14.10;99.90;;;;;;4157709;28;20088;-68
2021/05/29 00:21:46;;;;;;;4.63;2.47;;;14.20;99.90;;;;;;4158169;28;20033;-68
2021/05/29 00:23:47;;;;;;;3.58;2.50;;;14.10;99.90;;;;;;4158152;28;20071;-68
2021/05/29 00:25:48;;;;;;;3.55;2.50;;;14.20;99.90;;;;;;4158234;28;20042;-68
2021/05/29 00:27:48;;;;;;;2.85;2.40;;;14.20;99.90;;;;;;4157899;28;20168;-68
2021/05/29 00:29:49;;;;;;;2.90;2.15;;;14.20;99.90;;;;;;4156879;28;20026;-68
2021/05/29 00:31:49;;;;;;;3.08;2.30;;;14.10;99.90;;;;;;4156331;28;20107;-69
2021/05/29 00:33:50;;;;;;;4.43;2.53;;;14.20;99.90;;;;;;4157966;28;20639;-68
2021/05/29 00:35:51;;;;;;;3.00;2.50;;;14.10;99.90;;;;;;4158260;28;20029;-68
2021/05/29 00:37:52;;;;;;;4.75;2.45;;;14.20;99.90;;;;;;4154306;28;20042;-68
2021/05/29 00:39:52;;;;;;;2.80;2.22;;;14.10;99.90;;;;;;4155728;28;20052;-68
2021/05/29 00:41:53;;;;;;;3.85;2.58;;;14.10;99.90;;;;;;4156647;28;20052;-68
2021/05/29 00:43:53;;;;;;;4.22;2.40;;;14.10;99.90;;;;;;4157544;28;20045;-68
2021/05/29 00:45:54;;;;;;;3.72;2.40;;;14.10;99.90;;;;;;4156563;28;20061;-68
2021/05/29 00:47:55;;;;;;;3.72;2.63;;;14.10;99.90;;;;;;4156500;28;20045;-68
2021/05/29 00:50:04;;;;;;;3.97;2.67;;;14.10;99.90;;;;;;4157716;28;20038;-68
2021/05/29 00:52:05;;;;;;;3.65;2.85;;;14.10;99.90;;;;;;4157723;28;20099;-68
2021/05/29 00:54:06;;;;;;;4.13;2.78;;;14.10;99.90;;;;;;4156524;28;20489;-68
2021/05/29 00:56:08;;;;;;;3.63;2.78;;;14.00;99.90;;;;;;4156241;28;20500;-68
2021/05/29 00:58:09;;;;;;;4.72;3.55;;;14.00;99.90;;;;;;4157916;28;20040;-68
2021/05/29 01:00:10;;;;;;;6.80;3.97;;;14.00;99.90;;;;;;4156476;28;20034;-68
2021/05/29 01:02:15;;;;;;;5.93;4.13;;;13.90;99.90;;;;;;4157228;28;20350;-68
2021/05/29 01:04:15;;;;;;;7.25;4.55;;;13.90;99.90;;;;;;4154275;28;20170;-69
2021/05/29 01:06:16;;;;;;;6.40;4.45;;;13.90;99.90;;;;;;4153904;28;20037;-68
2021/05/29 01:08:16;;;;;;;7.15;4.72;;;13.90;99.90;;;;;;4157101;28;20083;-68
2021/05/29 01:10:18;;;;;;;7.07;4.30;;;13.90;99.90;;;;;;4156003;28;20041;-68
2021/05/29 01:12:19;;;;;;;7.40;4.80;;;13.90;99.90;;;;;;4157644;28;20033;-68
2021/05/29 01:14:20;;;;;;;6.13;4.30;;;13.90;99.90;;;;;;4158146;28;20044;-68
2021/05/29 01:16:43;;;;;;;7.63;4.32;;;13.90;99.90;;;;;;4158245;28;20524;-68
2021/05/29 01:18:41;;;;;;;6.47;4.05;;;13.80;99.90;;;;;;4156539;28;20436;-68
2021/05/29 01:20:44;;;;;;;5.38;3.95;;;13.90;99.90;;;;;;4156000;28;20053;-68
2021/05/29 01:22:46;;;;;;;6.80;4.15;;;13.80;99.90;;;;;;4157208;28;20046;-68
2021/05/29 01:24:47;;;;;;;8.27;4.03;;;13.80;99.90;;;;;;4157832;28;20175;-68
2021/05/29 01:26:49;;;;;;;6.20;4.20;;;13.80;99.90;;;;;;4158272;28;20441;-68
2021/05/29 01:28:55;;;;;;;5.97;4.03;;;13.80;99.90;;;;;;4155159;28;20044;-68
2021/05/29 01:31:02;;;;;;;4.15;3.33;;;13.80;99.90;;;;;;4157716;28;20033;-68
2021/05/29 01:33:03;;;;;;;5.53;3.50;;;13.80;99.90;;;;;;4155551;28;20034;-68
2021/05/29 01:35:09;;;;;;;4.93;2.90;;;13.80;99.90;;;;;;4157570;28;20472;-68
2021/05/29 01:37:10;;;;;;;4.82;2.92;;;13.80;99.90;;;;;;4144926;28;20550;-68
2021/05/29 01:39:11;;;;;;;4.38;2.65;;;13.80;99.90;;;;;;4156965;28;20033;-68
2021/05/29 01:41:14;;;;;;;5.75;3.35;;;13.70;99.90;;;;;;4157117;28;20040;-68
2021/05/29 01:43:15;;;;;;;3.75;3.00;;;13.70;99.90;;;;;;4165313;28;20037;-68
2021/05/29 01:45:15;;;;;;;4.30;2.97;;;13.70;99.90;;;;;;4154774;28;20104;-68
2021/05/29 01:47:16;;;;;;;6.47;3.35;;;13.70;99.90;;;;;;4157108;28;20473;-68
2021/05/29 01:49:18;;;;;;;5.03;3.00;;;13.70;99.90;;;;;;4160926;28;20033;-68
2021/05/29 01:51:21;;;;;;;4.32;2.53;;;13.60;99.90;;;;;;4160613;28;20040;-68
2021/05/29 01:53:23;;;;;;;4.28;2.85;;;13.60;99.90;;;;;;4160500;28;20103;-68
2021/05/29 01:55:26;;;;;;;3.40;2.90;;;13.60;99.90;;;;;;4160730;28;20167;-68
2021/05/29 01:57:26;;;;;;;3.45;2.10;;;13.60;99.90;;;;;;4160214;28;20034;-68
2021/05/29 01:59:27;;;;;;;4.22;2.55;;;13.50;99.90;;;;;;4160331;28;20079;-69
2021/05/29 02:01:28;;;;;;;3.70;2.70;;;13.50;99.90;;;;;;4159668;28;20041;-68
2021/05/29 02:03:28;;;;;;;4.53;2.60;;;13.50;99.90;;;;;;4160018;28;20041;-68
2021/05/29 02:05:31;;;;;;;3.15;2.22;;;13.50;99.90;;;;;;4158590;28;20095;-68
2021/05/29 02:07:32;;;;;;;3.33;2.38;;;13.40;99.90;;;;;;4160080;28;20033;-68
2021/05/29 02:09:32;;;;;;;4.55;2.78;;;13.40;99.90;;;;;;4160025;28;20115;-68
2021/05/29 02:11:34;;;;;;;3.65;2.65;;;13.30;99.90;;;;;;4159610;28;20026;-68
2021/05/29 02:13:39;;;;;;;3.38;2.65;;;13.30;99.90;;;;;;4160129;28;20041;-68
2021/05/29 02:15:41;;;;;;;3.58;2.78;;;13.20;99.90;;;;;;4158209;28;20038;-68
2021/05/29 02:17:43;;;;;;;5.07;3.03;;;13.20;99.90;;;;;;4158372;28;20040;-68
2021/05/29 02:19:44;;;;;;;4.80;2.83;;;13.10;99.90;;;;;;4156826;28;20133;-68
2021/05/29 02:21:44;;;;;;;4.70;3.15;;;13.10;99.90;;;;;;4141422;28;20553;-68
2021/05/29 02:23:50;;;;;;;4.35;3.13;;;13.00;99.90;;;;;;4159577;28;20033;-68
2021/05/29 02:25:54;;;;;;;3.60;2.75;;;13.00;99.90;;;;;;4159361;28;20039;-68
2021/05/29 02:27:55;;;;;;;3.80;2.80;;;13.00;99.90;;;;;;4153758;28;20038;-68
2021/05/29 02:29:55;;;;;;;4.50;2.75;;;13.00;99.90;;;;;;4141704;28;20205;-68
2021/05/29 02:31:56;;;;;;;3.90;2.83;;;13.00;99.90;;;;;;4158324;28;20041;-68
2021/05/29 02:33:56;;;;;;;4.82;2.90;;;13.00;99.90;;;;;;4158077;28;20817;-68
2021/05/29 02:35:57;;;;;;;6.75;3.33;;;13.00;99.90;;;;;;4157266;28;20076;-68
2021/05/29 02:37:58;;;;;;;3.13;2.58;;;12.90;99.90;;;;;;4157323;28;20038;-68
2021/05/29 02:39:59;;;;;;;3.83;3.10;;;13.00;99.90;;;;;;4157976;28;20102;-68
2021/05/29 02:41:59;;;;;;;4.50;3.10;;;12.90;99.90;;;;;;4157307;28;20069;-68
2021/05/29 02:44:00;;;;;;;5.22;3.42;;;12.90;99.90;;;;;;4157627;28;20041;-68
2021/05/29 02:46:01;;;;;;;4.32;3.08;;;12.90;99.90;;;;;;4159404;28;20693;-68
2021/05/29 02:48:02;;;;;;;4.60;3.20;;;12.90;99.90;;;;;;4141466;28;20046;-68
2021/05/29 02:50:04;;;;;;;3.80;2.75;;;12.90;99.90;;;;;;4159835;28;20057;-68
2021/05/29 02:52:04;;;;;;;3.20;2.40;;;12.90;99.90;;;;;;4158999;28;20037;-68
2021/05/29 02:54:05;;;;;;;5.10;3.03;;;12.90;99.90;;;;;;4159564;28;20614;-69
2021/05/29 02:56:05;;;;;;;4.75;3.20;;;12.90;99.90;;;;;;4159572;28;20044;-69
2021/05/29 02:58:07;;;;;;;4.25;2.95;;;12.90;99.90;;;;;;4158842;28;20069;-68
2021/05/29 03:00:10;;;;;;;4.45;3.50;;;12.90;99.90;;;;;;4157911;28;20044;-68
2021/05/29 03:02:12;;;;;;;3.80;3.22;;;12.90;99.90;;;;;;4158934;28;20029;-68
2021/05/29 03:04:12;;;;;;;4.45;3.30;;;13.00;99.90;;;;;;4158771;28;20068;-68
2021/05/29 03:06:13;;;;;;;4.38;3.58;;;12.90;99.90;;;;;;4159242;28;20045;-68
2021/05/29 03:08:15;;;;;;;5.60;3.58;;;12.90;99.90;;;;;;4156873;28;20552;-68
2021/05/29 03:10:16;;;;;;;4.40;2.97;;;12.90;99.90;;;;;;4158887;28;20068;-68
2021/05/29 03:12:16;;;;;;;5.35;3.45;;;12.80;99.90;;;;;;4158802;28;20606;-68
2021/05/29 03:14:17;;;;;;;4.07;3.08;;;12.80;99.90;;;;;;4157745;28;20124;-68
2021/05/29 03:16:18;;;;;;;5.80;3.15;;;12.80;99.90;;;;;;4158905;28;20047;-68
2021/05/29 03:18:18;;;;;;;5.05;3.00;;;12.80;99.90;;;;;;4159356;28;20040;-68
2021/05/29 03:20:23;;;;;;;6.00;3.10;;;12.80;99.90;;;;;;4158486;28;20038;-68
2021/05/29 03:22:23;;;;;;;5.50;3.35;;;12.80;99.90;;;;;;4157728;28;20665;-68
2021/05/29 03:24:24;;;;;;;4.15;3.33;;;12.80;99.90;;;;;;4159142;28;20057;-68
2021/05/29 03:26:25;;;;;;;3.80;3.10;;;12.80;99.90;;;;;;4157305;28;20037;-69
2021/05/29 03:28:25;;;;;;;6.50;3.80;;;12.80;99.90;;;;;;4158023;28;20033;-69
2021/05/29 03:30:28;;;;;;;5.97;3.13;;;12.70;99.90;;;;;;4159072;28;20087;-68
2021/05/29 03:32:28;;;;;;;4.72;3.47;;;12.70;99.90;;;;;;4158241;28;20056;-68
2021/05/29 03:34:29;;;;;;;5.20;3.30;;;12.70;99.90;;;;;;4159165;28;20044;-68
2021/05/29 03:36:30;;;;;;;4.85;3.65;;;12.70;99.90;;;;;;4156576;28;20065;-68
2021/05/29 03:38:30;;;;;;;4.18;3.28;;;12.70;99.90;;;;;;4158968;28;20037;-68
2021/05/29 03:40:31;;;;;;;4.28;3.03;;;12.70;99.90;;;;;;4157658;28;20408;-69
2021/05/29 03:42:32;;;;;;;4.03;3.30;;;12.70;99.90;;;;;;4158927;28;20045;-68
2021/05/29 03:44:33;;;;;;;5.80;3.88;;;12.70;99.90;;;;;;4158897;28;20068;-68
2021/05/29 03:46:34;;;;;;;4.28;3.38;;;12.60;99.90;;;;;;4158339;28;20045;-68
2021/05/29 03:48:35;;;;;;;4.50;3.65;;;12.60;99.90;;;;;;4158923;28;20394;-68
2021/05/29 03:50:38;;;;;;;5.38;3.70;;;12.60;99.90;;;;;;4158529;28;20053;-68
2021/05/29 03:52:41;;;;;;;4.15;3.30;;;12.60;99.90;;;;;;4158369;28;20037;-68
2021/05/29 03:54:42;;;;;;;;;;;12.60;99.90;;;;;;4159310;28;20034;-68
2021/05/29 03:56:42;;;;;;;4.40;3.10;;;12.60;99.90;;;;;;4158277;28;20199;-68
2021/05/29 03:58:43;;;;;;;4.80;3.40;;;12.50;99.90;;;;;;4140755;28;20124;-68
2021/05/29 04:00:44;;;;;;;5.20;3.25;;;12.50;99.90;;;;;;4158656;28;20065;-68
2021/05/29 04:02:45;;;;;;;4.45;3.20;;;12.60;99.90;;;;;;4157801;28;20034;-68
2021/05/29 04:04:46;;;;;;;5.70;3.80;;;12.50;99.90;;;;;;4158567;28;20036;-68
2021/05/29 04:06:47;;;;;;;3.90;3.22;;;12.50;99.90;;;;;;4158297;28;20116;-68
2021/05/29 04:08:48;;;;;;;5.53;3.80;;;12.50;99.90;;;;;;4139382;28;20042;-68
2021/05/29 04:10:49;;;;;;;4.50;3.17;;;12.50;99.90;;;;;;4157271;28;20056;-68
2021/05/29 04:12:50;;;;;;;4.97;3.65;;;12.50;99.90;;;;;;4158319;28;20548;-69
2021/05/29 04:14:51;;;;;;;4.53;3.75;;;12.40;99.90;;;;;;4158109;28;20035;-68
2021/05/29 04:16:52;;;;;;;5.65;3.63;;;12.40;99.90;;;;;;4156901;28;20064;-68
2021/05/29 04:18:52;;;;;;;6.65;3.92;;;12.40;99.90;;;;;;4156846;28;20121;-68
2021/05/29 04:20:53;;;;;;;4.57;3.67;;;12.30;99.90;;;;;;4155754;28;20029;-68
2021/05/29 04:22:54;;;;;;;4.85;3.50;;;12.30;99.90;;;;;;4154636;28;20049;-68
2021/05/29 04:24:55;;;;;;;5.15;3.92;;;12.30;99.90;;;;;;4153627;28;20090;-68
2021/05/29 04:26:55;;;;;;;7.47;3.75;;;12.30;99.90;;;;;;4157677;28;20144;-68
2021/05/29 04:28:56;;;;;;;8.18;3.35;;;12.20;99.90;;;;;;4157638;28;20038;-68
2021/05/29 04:30:56;;;;;;;5.75;3.97;;;12.20;99.90;;;;;;4158343;28;20693;-68
2021/05/29 04:32:57;;;;;;;4.22;3.30;;;12.20;99.90;;;;;;4155922;28;20093;-68
2021/05/29 04:34:58;;;;;;;5.72;3.58;;;12.20;99.90;;;;;;4158325;28;20064;-68
2021/05/29 04:36:58;;;;;;;5.55;4.15;;;12.20;99.90;;;;;;4158448;28;20029;-68
2021/05/29 04:38:59;;;;;;;4.25;3.13;;;12.10;99.90;;;;;;4157565;28;20048;-68
2021/05/29 04:41:00;;;;;;;6.05;4.10;;;12.10;99.90;;;;;;4158272;28;20068;-68
2021/05/29 04:43:01;;;;;;;5.90;3.65;;;12.20;99.90;;;;;;4156420;28;20501;-68
2021/05/29 04:45:03;;;;;;;4.70;3.45;;;12.20;99.90;;;;;;4157457;28;20511;-69
2021/05/29 04:47:04;;;;;;;4.75;3.38;;;12.20;99.90;;;;;;4157787;28;20478;-68
2021/05/29 04:49:06;;;;;;;5.20;3.67;;;12.20;99.90;;;;;;4158117;28;20065;-68
2021/05/29 04:51:13;;;;;;;5.57;3.40;;;12.20;99.90;;;;;;4158094;28;20037;-68
2021/05/29 04:53:13;;;;;;;5.03;3.47;;;12.20;99.90;;;;;;4156334;28;20034;-68
2021/05/29 04:55:15;;;;;;;6.10;3.70;;;12.30;99.90;;;;;;4158450;28;20112;-68
2021/05/29 04:57:17;;;;;;;6.10;3.60;;;12.30;99.90;;;;;;4158164;28;20038;-68
2021/05/29 04:59:17;;;;;;;6.85;4.03;;;12.30;99.90;;;;;;4158177;28;20029;-68
2021/05/29 05:01:18;;;;;;;6.25;3.92;;;12.30;99.90;;;;;;4158181;28;20041;-68
2021/05/29 05:03:18;;;;;;;5.47;3.60;;;12.40;99.90;;;;;;4157760;28;20362;-68
2021/05/29 05:05:19;;;;;;;4.50;3.63;;;12.40;99.90;;;;;;4156954;28;20041;-68
2021/05/29 05:07:19;;;;;;;6.60;3.75;;;12.40;99.90;;;;;;4156426;28;20041;-68
2021/05/29 05:09:20;;;;;;;4.95;4.00;;;12.50;99.90;;;;;;4158322;28;20032;-68
2021/05/29 05:11:21;;;;;;;4.85;3.67;;;12.50;99.90;;;;;;4156421;28;20029;-68
2021/05/29 05:13:23;;;;;;;5.68;3.72;;;12.50;99.90;;;;;;4156300;28;20033;-68
2021/05/29 05:15:23;;;;;;;7.32;4.28;;;12.60;99.90;;;;;;4158602;28;20025;-68
2021/05/29 05:17:24;;;;;;;4.97;3.33;;;12.60;99.90;;;;;;4158458;28;20120;-68
2021/05/29 05:19:25;;;;;;;4.72;3.33;;;12.60;99.90;;;;;;4156612;28;20049;-69
2021/05/29 05:21:25;;;;;;;7.38;3.65;;;12.60;99.90;;;;;;4155349;28;20030;-68
2021/05/29 05:23:26;;;;;;;5.65;3.40;;;12.70;99.90;;;;;;4151812;28;20046;-68
2021/05/29 05:25:27;;;;;;;3.97;3.20;;;12.70;99.90;;;;;;4160982;28;20033;-68
2021/05/29 05:27:28;;;;;;;4.90;3.60;;;12.70;99.90;;;;;;4158938;28;20034;-68
2021/05/29 05:29:29;;;;;;;5.25;3.50;;;12.70;99.90;;;;;;4162803;28;20514;-69
2021/05/29 05:31:29;;;;;;;4.80;3.50;;;12.70;99.90;;;;;;4160901;28;20068;-68
2021/05/29 05:33:39;;;;;;;4.88;3.38;;;12.80;99.90;;;;;;4154278;28;20029;-68
2021/05/29 05:35:41;;;;;;;4.88;3.72;;;12.80;99.90;;;;;;4100440;28;20026;-68
2021/05/29 05:37:42;;;;;;;4.65;3.35;;;12.80;99.90;;;;;;4158341;28;20033;-68
2021/05/29 05:39:43;;;;;;;6.15;3.38;;;12.90;99.90;;;;;;4162128;28;20654;-69
2021/05/29 05:41:43;;;;;;;4.85;3.10;;;12.90;99.90;;;;;;4153815;28;20037;-68
2021/05/29 05:43:45;;;;;;;4.43;3.40;;;13.00;99.90;;;;;;4170078;28;20048;-68
2021/05/29 05:45:46;;;;;;;5.88;3.50;;;13.00;99.90;;;;;;4171516;28;20034;-68
2021/05/29 05:47:46;;;;;;;3.80;3.05;;;13.00;99.90;;;;;;4165411;28;20040;-68
2021/05/29 05:49:47;;;;;;;4.28;2.70;;;13.10;99.90;;;;;;4157048;28;20033;-68
2021/05/29 05:51:48;;;;;;;5.93;3.40;;;13.10;99.90;;;;;;4168432;28;20056;-68
2021/05/29 05:53:48;;;;;;;6.20;3.35;;;13.30;99.90;;;;;;4163792;28;20029;-68
2021/05/29 05:55:58;;;;;;;5.85;3.47;;;13.60;99.90;;;;;;4157426;28;20375;-68
2021/05/29 05:57:59;;;;;;;5.50;3.38;;;14.00;99.90;;;;;;4152252;28;20034;-68
2021/05/29 06:00:00;;;;;;;5.00;3.22;;;14.40;99.90;;;;;;4167835;28;20041;-69
2021/05/29 06:02:01;;;;;;;5.97;3.40;;;14.80;99.90;;;;;;4153220;28;20037;-69
2021/05/29 06:04:02;;;;;;;3.28;2.80;;;15.20;99.90;;;;;;4166374;28;20049;-68
2021/05/29 06:06:03;;;;;;;5.05;2.97;;;15.60;99.90;;;;;;4161561;28;20420;-68
2021/05/29 06:08:03;;;;;;;2.83;2.38;;;16.00;99.90;;;;;;4155273;28;20525;-69
2021/05/29 06:10:05;;;;;;;3.97;2.70;;;16.40;99.90;;;;;;4162833;28;20033;-69
2021/05/29 06:12:06;;;;;;;4.33;2.70;;;16.70;99.90;;;;;;4162420;28;20037;-68
2021/05/29 06:20:50;;;;;;;2.78;2.20;;;17.80;99.90;;;;;;4160643;28;20041;-69
2021/05/29 06:22:50;;;;;;;7.05;2.85;;;18.00;99.90;;;;;;4164421;28;20041;-69
2021/05/29 06:24:51;;;;;;;2.17;1.95;;;18.30;99.90;;;;;;4167881;28;20589;-68
2021/05/29 06:26:52;;;;;;;4.55;2.70;;;18.50;99.90;;;;;;4158807;28;20045;-68
2021/05/29 06:28:52;;;;;;;4.05;2.58;;;18.60;99.90;;;;;;4153918;28;20026;-69
2021/05/29 06:30:53;;;;;;;3.60;2.20;;;18.60;99.90;;;;;;4163733;28;20057;-69
2021/05/29 06:32:54;;;;;;;3.03;2.50;;;18.70;99.90;;;;;;4162214;28;20088;-69
2021/05/29 06:34:54;;;;;;;3.95;2.47;;;18.70;99.90;;;;;;4163218;28;20036;-69
2021/05/29 06:36:55;;;;;;;2.75;1.88;;;18.70;99.90;;;;;;4161960;28;20123;-69
2021/05/29 06:38:56;;;;;;;3.88;2.42;;;18.70;99.90;;;;;;4167625;28;20476;-69
2021/05/29 06:40:56;;;;;;;3.97;2.35;;;18.60;99.90;;;;;;4161629;28;20044;-69
2021/05/29 06:42:57;;;;;;;3.38;2.22;;;18.50;99.90;;;;;;4157980;28;20091;-68
2021/05/29 06:44:57;;;;;;;3.40;2.25;;;18.50;99.90;;;;;;4160785;28;20046;-68
2021/05/29 06:46:58;;;;;;;3.58;2.25;;;18.40;99.90;;;;;;4160300;28;20038;-69
2021/05/29 06:49:00;;;;;;;3.47;2.38;;;18.40;99.90;;;;;;4140294;28;20080;-68
2021/05/29 06:51:01;;;;;;;3.13;2.40;;;18.30;99.90;;;;;;4160793;28;20440;-69
2021/05/29 06:53:04;;;;;;;8.50;3.22;;;18.30;99.90;;;;;;4170192;28;20037;-68
2021/05/29 07:00:07;;;;;;;2.70;2.08;;;18.10;99.90;;;;;;4136647;28;20042;-69
2021/05/29 07:02:08;;;;;;;3.05;2.50;;;18.10;99.90;;;;;;4170077;28;20113;-68
2021/05/29 07:04:09;;;;;;;3.05;2.10;;;18.00;99.90;;;;;;4166831;28;20420;-70
2021/05/29 07:06:10;;;;;;;3.55;2.67;;;17.90;99.90;;;;;;4166893;28;20041;-69
2021/05/29 07:08:11;;;;;;;2.45;2.22;;;17.90;99.90;;;;;;4154519;28;20038;-70
2021/05/29 07:10:12;;;;;;;4.18;2.50;;;17.80;99.90;;;;;;4151267;28;20442;-69
2021/05/29 07:12:13;;;;;;;3.85;2.53;;;17.80;99.90;;;;;;4156044;28;20092;-69
2021/05/29 07:14:14;;;;;;;3.38;2.60;;;17.70;99.90;;;;;;4162170;28;20041;-69
2021/05/29 07:16:16;;;;;;;4.47;2.70;;;17.60;99.90;;;;;;4161985;28;20195;-70
2021/05/29 07:18:16;;;;;;;3.43;2.50;;;17.50;99.90;;;;;;4159281;28;20040;-70
2021/05/29 07:20:17;;;;;;;4.72;2.80;;;17.40;99.90;;;;;;4160147;28;20485;-70
2021/05/29 07:22:18;;;;;;;3.72;2.28;;;17.40;99.90;;;;;;4166692;28;20500;-70
2021/05/29 07:24:20;;;;;;;4.68;2.92;;;17.30;99.90;;;;;;4158321;28;20461;-69
2021/05/29 07:26:20;;;;;;;4.15;2.88;;;17.30;99.90;;;;;;4163581;28;20524;-67
2021/05/29 07:28:21;;;;;;;4.57;2.38;;;17.20;99.90;;;;;;4164637;28;20198;-67
2021/05/29 07:30:22;;;;;;;3.10;2.20;;;17.10;99.90;;;;;;4164848;28;20033;-68
2021/05/29 07:32:24;;;;;;;4.07;2.50;;;17.00;99.90;;;;;;4160045;28;20026;-68
2021/05/29 07:34:25;;;;;;;5.15;2.97;;;17.00;99.90;;;;;;4174831;28;20544;-68
2021/05/29 07:36:25;;;;;;;5.32;2.50;;;16.90;99.90;;;;;;4159537;28;20041;-68
2021/05/29 07:38:26;;;;;;;4.97;2.80;;;16.80;99.90;;;;;;4154781;28;20077;-68
2021/05/29 07:40:27;;;;;;;3.20;2.30;;;16.80;99.90;;;;;;4157870;28;20029;-68
2021/05/29 07:42:28;;;;;;;4.68;2.67;;;16.80;99.90;;;;;;4154858;28;20085;-68
2021/05/29 07:44:29;;;;;;;4.95;2.40;;;16.80;99.90;;;;;;4155373;28;20048;-68
2021/05/29 07:46:30;;;;;;;2.90;2.10;;;16.80;99.90;;;;;;4159317;28;20037;-68
2021/05/29 07:48:33;;;;;;;3.60;2.13;;;16.70;99.90;;;;;;4155531;28;20033;-68
2021/05/29 07:50:33;;;;;;;3.72;2.33;;;16.70;99.90;;;;;;4158704;28;20018;-68
2021/05/29 07:52:34;;;;;;;3.35;2.17;;;16.70;99.90;;;;;;4157568;28;20040;-68
2021/05/29 07:54:35;;;;;;;3.80;1.98;;;16.70;99.90;;;;;;4153702;28;20044;-68
2021/05/29 07:56:36;;;;;;;2.63;2.15;;;16.70;99.90;;;;;;4156103;28;20087;-68
2021/05/29 07:58:37;;;;;;;5.70;2.40;;;16.70;99.90;;;;;;4157105;28;20045;-68
2021/05/29 08:00:38;;;;;;;2.53;1.90;;;16.60;99.90;;;;;;4157532;28;20033;-68
2021/05/29 08:02:39;;;;;;;4.00;1.58;;;16.60;99.90;;;;;;4160639;28;20071;-68
2021/05/29 08:04:40;;;;;;;2.85;2.00;;;16.60;99.90;;;;;;4156500;28;20573;-68
2021/05/29 08:06:40;;;;;;;3.33;2.30;;;16.60;99.90;;;;;;4155978;28;20038;-68
2021/05/29 08:08:42;;;;;;;3.58;2.20;;;16.70;99.90;;;;;;4159283;28;20509;-68
2021/05/29 08:10:45;;;;;;;3.85;2.60;;;16.70;99.90;;;;;;4158694;28;20026;-68
2021/05/29 08:12:46;;;;;;;4.75;3.00;;;16.70;99.90;;;;;;4158992;28;20663;-69
2021/05/29 08:14:47;;;;;;;4.25;2.50;;;16.70;99.90;;;;;;4155888;28;20081;-68
2021/05/29 08:16:47;;;;;;;4.50;2.58;;;16.80;99.90;;;;;;4154308;28;20045;-68
2021/05/29 08:18:49;;;;;;;4.25;2.90;;;16.80;99.90;;;;;;4154950;28;20775;-68
2021/05/29 08:20:50;;;;;;;3.90;2.70;;;16.80;99.90;;;;;;4158730;28;20090;-68
2021/05/29 08:22:51;;;;;;;4.25;2.90;;;16.80;99.90;;;;;;4157680;28;20497;-68
2021/05/29 08:24:51;;;;;;;7.95;3.53;;;16.80;99.90;;;;;;4156034;28;20036;-68
2021/05/29 08:26:52;;;;;;;4.72;3.00;;;16.80;99.90;;;;;;4158180;28;20388;-68
2021/05/29 08:28:54;;;;;;;3.40;2.83;;;16.80;99.90;;;;;;4160634;28;20026;-68
2021/05/29 08:30:56;;;;;;;5.27;2.93;;;16.90;99.90;;;;;;4157713;28;20107;-68
2021/05/29 08:32:57;;;;;;;4.72;3.30;;;16.90;99.90;;;;;;4158914;28;20057;-68
2021/05/29 08:34:57;;;;;;;5.82;3.45;;;16.90;99.90;;;;;;4157630;28;20038;-68
2021/05/29 08:36:58;;;;;;;4.65;2.90;;;16.90;99.90;;;;;;4160406;28;20064;-68
2021/05/29 08:38:58;;;;;;;5.22;3.60;;;17.00;99.90;;;;;;4158612;28;20042;-68
2021/05/29 08:41:00;;;;;;;5.68;3.42;;;16.90;99.90;;;;;;4158860;28;20068;-68
2021/05/29 08:43:01;;;;;;;5.32;3.40;;;17.00;99.90;;;;;;4157445;28;20104;-68
2021/05/29 08:45:03;;;;;;;5.60;3.35;;;17.00;99.90;;;;;;4158000;28;20060;-68
2021/05/29 08:47:04;;;;;;;6.72;3.65;;;17.20;99.90;;;;;;4160193;28;20052;-68
2021/05/29 08:49:06;;;;;;;4.68;3.00;;;17.30;99.90;;;;;;4160007;28;20061;-68
2021/05/29 08:51:14;;;;;;;6.00;3.92;;;17.40;99.90;;;;;;4159234;28;20022;-73
2021/05/29 08:53:15;;;;;;;5.93;3.80;;;17.40;99.90;;;;;;4156787;28;20523;-68
2021/05/29 08:55:17;;;;;;;7.57;4.97;;;17.50;99.90;;;;;;4164903;28;20033;-68
2021/05/29 08:57:18;;;;;;;8.27;5.38;;;17.50;99.90;;;;;;4166227;28;20377;-68
2021/05/29 08:59:18;;;;;;;8.23;4.88;;;17.50;99.90;;;;;;4161720;28;20029;-68
2021/05/29 09:01:20;;;;;;;6.75;4.55;;;17.60;99.90;;;;;;4164868;28;20048;-69
2021/05/29 09:03:21;;;;;;;5.43;4.10;;;17.70;99.90;;;;;;4161688;28;20073;-68
2021/05/29 09:05:38;;;;;;;4.95;3.63;;;17.80;99.90;;;;;;4153548;28;20037;-69
2021/05/29 09:07:38;;;;;;;7.88;3.22;;;18.00;99.90;;;;;;4163313;28;20358;-68
2021/05/29 09:09:39;;;;;;;6.72;3.63;;;18.20;99.90;;;;;;4162076;28;20115;-68
2021/05/29 09:11:48;;;;;;;7.00;4.22;;;18.40;99.90;;;;;;4146988;28;20430;-68
2021/05/29 09:13:51;;;;;;;5.13;3.60;;;18.50;99.90;;;;;;4160513;28;20029;-68
2021/05/29 09:16:02;;;;;;;5.90;4.25;;;18.50;99.90;;;;;;4164612;28;20028;-68
2021/05/29 09:18:04;;;;;;;6.65;4.05;;;18.60;99.90;;;;;;4156898;28;20038;-69
2021/05/29 09:20:07;;;;;;;5.63;3.92;;;18.70;99.90;;;;;;4159392;28;20089;-69
2021/05/29 09:22:11;;;;;;;5.85;3.80;;;18.70;99.90;;;;;;4159141;28;20045;-69
2021/05/29 09:24:14;;;;;;;6.00;3.63;;;18.80;99.90;;;;;;4158020;28;20701;-69
2021/05/29 09:26:15;;;;;;;5.25;3.88;;;18.90;99.90;;;;;;4156720;28;20040;-68
2021/05/29 09:28:22;;;;;;;6.05;4.72;;;19.00;99.90;;;;;;4159435;28;20057;-68
2021/05/29 09:30:39;;;;;;;4.93;4.07;;;19.00;99.90;;;;;;4152670;28;20036;-68
2021/05/29 09:32:40;;;;;;;6.30;4.60;;;19.10;99.90;;;;;;4162677;28;20029;-69
2021/05/29 09:35:05;;;;;;;4.88;3.67;;;19.10;99.90;;;;;;4162154;28;20044;-70
2021/05/29 09:37:11;;;;;;;6.20;4.05;;;19.10;99.90;;;;;;4156194;28;20057;-68
2021/05/29 09:39:19;;;;;;;5.25;4.05;;;19.20;99.90;;;;;;4161971;28;20187;-68
2021/05/29 09:41:30;;;;;;;4.45;3.50;;;19.20;99.90;;;;;;4161030;28;20485;-69
2021/05/29 09:44:12;;;;;;;5.57;3.75;;;19.20;99.90;;;;;;4164922;28;20097;-68
2021/05/29 09:46:12;;;;;;;6.18;3.65;;;19.30;99.90;;;;;;4161856;28;20117;-69
2021/05/29 09:48:17;;;;;;;6.35;3.90;;;19.30;99.90;;;;;;4157123;28;20589;-68
2021/05/29 09:50:20;;;;;;;5.03;3.63;;;19.40;99.90;;;;;;4159076;28;20057;-68
2021/05/29 09:52:36;;;;;;;5.15;3.28;;;19.40;99.90;;;;;;4157300;28;20044;-69
2021/05/29 09:54:37;;;;;;;5.30;3.60;;;19.40;99.90;;;;;;4154804;28;20054;-69
2021/05/29 09:56:46;;;;;;;5.35;3.60;;;19.50;99.90;;;;;;4156334;28;20018;-68
2021/05/29 09:58:53;;;;;;;5.20;3.25;;;19.60;99.90;;;;;;4176203;28;20035;-68
2021/05/29 10:00:54;;;;;;;6.03;4.07;;;19.70;99.90;;;;;;4163331;28;20049;-68
2021/05/29 10:03:02;;;;;;;9.48;4.00;;;19.80;99.90;;;;;;4164292;28;20095;-69
2021/05/29 10:05:23;;;;;;;9.13;4.53;;;19.80;99.90;;;;;;4161188;28;20129;-68
2021/05/29 10:07:38;;;;;;;7.22;4.45;;;19.80;99.90;;;;;;4158784;28;20040;-69
2021/05/29 10:09:40;;;;;;;7.97;4.57;;;19.90;99.90;;;;;;4152163;28;20053;-68
2021/05/29 10:11:41;;;;;;;5.40;4.50;;;19.90;99.90;;;;;;4149417;28;20036;-69
2021/05/29 10:13:41;;;;;;;5.60;4.07;;;19.90;99.90;;;;;;4161665;28;20268;-68
2021/05/29 10:15:42;;;;;;;5.50;4.72;;;19.90;99.90;;;;;;4163511;28;20044;-69
2021/05/29 10:17:44;;;;;;;6.47;4.68;;;19.90;99.90;;;;;;4159289;28;20041;-68
2021/05/29 10:19:45;;;;;;;6.95;4.90;;;19.90;99.90;;;;;;4161932;28;20025;-69
2021/05/29 10:21:48;;;;;;;7.95;5.43;;;19.80;99.90;;;;;;4156986;28;20026;-69
2021/05/29 10:23:48;;;;;;;8.43;4.80;;;19.70;99.90;;;;;;4161847;28;20070;-68
2021/05/29 10:25:50;;;;;;;6.45;4.68;;;19.70;99.90;;;;;;4159935;28;20040;-69
2021/05/29 10:27:53;;;;;;;7.45;5.20;;;19.60;99.90;;;;;;4159571;28;20048;-68
2021/05/29 10:29:57;;;;;;;10.68;6.10;;;19.60;99.90;;;;;;4147187;28;20092;-68
2021/05/29 10:32:11;;;;;;;6.80;5.22;;;19.60;99.90;;;;;;4163431;28;20029;-68
2021/05/29 10:34:11;;;;;;;10.68;6.43;;;19.60;99.90;;;;;;4156833;28;20113;-68
2021/05/29 10:36:35;;;;;;;9.23;5.55;;;19.50;99.90;;;;;;4161787;28;20033;-68
2021/05/29 10:38:44;;;;;;;9.45;5.70;;;19.50;99.90;;;;;;4157454;28;20026;-68
2021/05/29 10:40:48;;;;;;;8.65;5.30;;;19.40;99.90;;;;;;4166494;28;20390;-69
2021/05/29 10:43:28;;;;;;;9.05;5.53;;;19.40;99.90;;;;;;4163770;28;20025;-68
2021/05/29 10:45:29;;;;;;;6.05;4.30;;;19.50;99.90;;;;;;4163646;28;20029;-68
2021/05/29 10:47:30;;;;;;;7.13;5.05;;;19.50;99.90;;;;;;4169034;28;20121;-68
2021/05/29 10:49:49;;;;;;;7.28;4.88;;;19.50;99.90;;;;;;4159708;28;20580;-69